createdAt,value
2018-09-09T00:00:53.492Z,7.67
2018-09-09T00:03:22.276Z,8.20
2018-09-09T00:05:50.392Z,7.57
2018-09-09T00:08:18.697Z,7.90
2018-09-09T00:10:47.649Z,8.60
2018-09-09T00:13:15.760Z,8.70
2018-09-09T00:15:44.104Z,8.80
2018-09-09T00:18:12.330Z,8.43
2018-09-09T00:20:40.553Z,8.53
2018-09-09T00:23:09.593Z,8.27
2018-09-09T00:25:37.658Z,8.53
2018-09-09T00:28:05.876Z,8.27
2018-09-09T00:30:34.397Z,8.10
2018-09-09T00:33:03.354Z,7.40
2018-09-09T00:35:31.539Z,7.70
2018-09-09T00:37:59.658Z,7.03
2018-09-09T00:40:27.762Z,7.77
2018-09-09T00:42:56.674Z,6.70
2018-09-09T00:45:24.935Z,6.97
2018-09-09T00:47:53.136Z,6.97
2018-09-09T00:50:27.536Z,6.73
2018-09-09T00:53:59.810Z,7.07
2018-09-09T00:56:28.020Z,7.30
2018-09-09T00:58:56.874Z,6.50
2018-09-09T01:01:24.909Z,7.03
2018-09-09T01:03:52.986Z,6.67
2018-09-09T01:06:21.077Z,6.80
2018-09-09T01:08:49.258Z,6.70
2018-09-09T01:11:17.330Z,7.43
2018-09-09T01:13:45.428Z,7.43
2018-09-09T01:16:13.515Z,7.17
2018-09-09T01:18:41.614Z,7.23
2018-09-09T01:21:09.791Z,7.03
2018-09-09T01:23:37.929Z,7.40
2018-09-09T01:26:06.178Z,7.17
2018-09-09T01:28:34.272Z,6.90
2018-09-09T01:31:02.504Z,6.70
2018-09-09T01:33:30.635Z,7.00
2018-09-09T01:35:59.147Z,6.00
2018-09-09T01:38:27.225Z,6.10
2018-09-09T01:40:55.281Z,6.30
2018-09-09T01:43:23.451Z,6.20
2018-09-09T01:45:51.589Z,6.03
2018-09-09T01:48:19.674Z,6.27
2018-09-09T01:50:50.729Z,5.87
2018-09-09T01:53:18.859Z,5.70
2018-09-09T01:55:46.957Z,6.17
2018-09-09T01:58:15.471Z,6.20
2018-09-09T02:00:43.624Z,5.87
2018-09-09T02:03:11.793Z,5.97
2018-09-09T02:05:39.959Z,5.90
2018-09-09T02:08:09.562Z,5.80
2018-09-09T02:10:37.682Z,5.50
2018-09-09T02:13:05.962Z,6.73
2018-09-09T02:15:34.058Z,6.67
2018-09-09T02:18:02.435Z,6.23
2018-09-09T02:20:30.545Z,6.80
2018-09-09T02:22:58.690Z,5.77
2018-09-09T02:25:26.726Z,6.17
2018-09-09T02:27:54.796Z,5.70
2018-09-09T02:30:23.056Z,5.70
2018-09-09T02:32:51.215Z,6.03
2018-09-09T02:35:19.483Z,6.27
2018-09-09T02:37:49.193Z,5.60
2018-09-09T02:40:17.685Z,5.60
2018-09-09T02:42:45.844Z,5.73
2018-09-09T02:45:14.194Z,6.03
2018-09-09T02:47:42.303Z,5.70
2018-09-09T02:50:10.589Z,6.10
2018-09-09T02:52:38.830Z,5.63
2018-09-09T02:55:07.026Z,6.20
2018-09-09T02:57:35.890Z,5.57
2018-09-09T03:00:04.660Z,5.33
2018-09-09T03:02:33.738Z,5.53
2018-09-09T03:05:01.856Z,5.40
2018-09-09T03:07:29.948Z,5.70
2018-09-09T03:09:58.017Z,5.60
2018-09-09T03:12:26.202Z,5.83
2018-09-09T03:14:54.351Z,5.83
2018-09-09T03:17:22.444Z,5.47
2018-09-09T03:19:50.654Z,4.97
2018-09-09T03:22:18.759Z,5.20
2018-09-09T03:24:46.853Z,5.73
2018-09-09T03:27:14.954Z,6.00
2018-09-09T03:29:43.108Z,5.60
2018-09-09T03:32:11.171Z,5.30
2018-09-09T03:34:39.219Z,5.17
2018-09-09T03:37:07.322Z,5.70
2018-09-09T03:39:35.500Z,4.73
2018-09-09T03:42:03.593Z,5.90
2018-09-09T03:44:31.716Z,5.27
2018-09-09T03:46:59.790Z,5.10
2018-09-09T03:49:27.887Z,5.33
2018-09-09T03:51:55.995Z,9.20
2018-09-09T03:54:30.459Z,5.70
2018-09-09T03:56:58.563Z,5.17
2018-09-09T03:59:26.643Z,5.10
2018-09-09T04:01:54.813Z,5.20
2018-09-09T04:04:22.939Z,5.10
2018-09-09T04:06:51.396Z,5.27
2018-09-09T04:09:19.520Z,5.23
2018-09-09T04:11:47.605Z,4.97
2018-09-09T04:14:15.698Z,5.63
2018-09-09T04:16:43.851Z,5.10
2018-09-09T04:19:12.606Z,5.60
2018-09-09T04:21:48.174Z,5.60
2018-09-09T04:24:16.324Z,5.53
2018-09-09T04:26:44.402Z,5.83
2018-09-09T04:29:12.803Z,5.90
2018-09-09T04:31:40.853Z,6.07
2018-09-09T04:34:08.946Z,5.63
2018-09-09T04:36:37.310Z,6.10
2018-09-09T04:39:08.101Z,6.07
2018-09-09T04:41:36.207Z,5.73
2018-09-09T04:44:04.307Z,5.87
2018-09-09T04:46:32.362Z,5.20
2018-09-09T04:49:00.471Z,5.20
2018-09-09T04:51:28.568Z,5.20
2018-09-09T04:53:56.803Z,5.57
2018-09-09T04:56:24.850Z,6.03
2018-09-09T04:58:52.942Z,5.27
2018-09-09T05:01:21.064Z,5.20
2018-09-09T05:03:49.154Z,5.00
2018-09-09T05:06:17.214Z,5.10
2018-09-09T05:08:45.311Z,4.87
2018-09-09T05:11:13.430Z,5.70
2018-09-09T05:13:41.559Z,4.77
2018-09-09T05:16:09.680Z,5.20
2018-09-09T05:18:37.747Z,5.00
2018-09-09T05:21:05.860Z,5.33
2018-09-09T05:23:33.988Z,5.10
2018-09-09T05:26:02.042Z,4.80
2018-09-09T05:28:30.191Z,4.60
2018-09-09T05:30:58.378Z,4.77
2018-09-09T05:33:26.531Z,4.87
2018-09-09T05:35:54.582Z,4.87
2018-09-09T05:38:22.690Z,4.30
2018-09-09T05:40:50.849Z,4.80
2018-09-09T05:43:18.966Z,4.40
2018-09-09T05:45:47.852Z,4.67
2018-09-09T05:48:15.921Z,4.30
2018-09-09T05:50:45.670Z,4.00
2018-09-09T05:53:13.744Z,4.00
2018-09-09T05:55:42.145Z,4.30
2018-09-09T05:58:10.226Z,4.40
2018-09-09T06:00:38.358Z,3.80
2018-09-09T06:03:06.586Z,4.27
2018-09-09T06:05:34.781Z,4.20
2018-09-09T06:08:02.926Z,4.37
2018-09-09T06:10:31.043Z,4.10
2018-09-09T06:12:59.214Z,3.90
2018-09-09T06:15:27.309Z,4.23
2018-09-09T06:17:55.561Z,4.00
2018-09-09T06:20:23.684Z,3.90
2018-09-09T06:22:51.787Z,4.40
2018-09-09T06:25:19.893Z,4.10
2018-09-09T06:27:48.041Z,4.13
2018-09-09T06:30:16.158Z,4.13
2018-09-09T06:32:44.229Z,4.10
2018-09-09T06:35:12.313Z,4.07
2018-09-09T06:37:40.390Z,3.80
2018-09-09T06:40:08.503Z,4.10
2018-09-09T06:42:36.754Z,4.00
2018-09-09T06:45:04.872Z,3.83
2018-09-09T06:47:33.043Z,4.07
2018-09-09T06:50:01.140Z,3.80
2018-09-09T06:52:29.353Z,4.20
2018-09-09T06:54:58.159Z,4.10
2018-09-09T06:57:26.247Z,4.30
2018-09-09T06:59:54.400Z,3.80
2018-09-09T07:02:22.517Z,4.00
2018-09-09T07:04:50.656Z,3.87
2018-09-09T07:07:18.726Z,4.20
2018-09-09T07:09:46.786Z,4.10
2018-09-09T07:12:14.942Z,4.07
2018-09-09T07:14:43.040Z,4.30
2018-09-09T07:17:11.901Z,4.10
2018-09-09T07:19:39.861Z,3.83
2018-09-09T07:22:07.988Z,3.90
2018-09-09T07:24:36.074Z,4.17
2018-09-09T07:27:04.718Z,3.87
2018-09-09T07:29:32.846Z,3.77
2018-09-09T07:32:01.144Z,3.90
2018-09-09T07:34:29.247Z,3.83
2018-09-09T07:36:57.295Z,3.67
2018-09-09T07:39:26.057Z,3.93
2018-09-09T07:41:54.209Z,4.17
2018-09-09T07:44:22.966Z,3.80
2018-09-09T07:46:51.097Z,3.37
2018-09-09T07:49:19.170Z,3.53
2018-09-09T07:51:47.238Z,3.90
2018-09-09T07:54:15.362Z,3.90
2018-09-09T07:56:43.538Z,4.17
2018-09-09T07:59:11.651Z,4.27
2018-09-09T08:01:40.623Z,4.23
2018-09-09T08:04:09.005Z,3.83
2018-09-09T08:06:37.154Z,4.00
2018-09-09T08:09:06.772Z,4.20
2018-09-09T08:11:36.714Z,4.00
2018-09-09T08:14:05.214Z,3.80
2018-09-09T08:16:33.874Z,3.93
2018-09-09T08:19:02.132Z,4.27
2018-09-09T08:21:30.835Z,3.87
2018-09-09T08:23:59.460Z,4.00
2018-09-09T08:26:27.998Z,4.10
2018-09-09T08:28:56.131Z,3.70
2018-09-09T08:31:24.810Z,3.90
2018-09-09T08:33:53.283Z,3.90
2018-09-09T08:36:21.352Z,3.80
2018-09-09T08:38:49.469Z,4.10
2018-09-09T08:41:17.532Z,3.60
2018-09-09T08:43:45.680Z,4.10
2018-09-09T08:46:13.785Z,4.00
2018-09-09T08:48:42.840Z,3.57
2018-09-09T08:51:11.847Z,4.07
2018-09-09T08:53:39.947Z,3.60
2018-09-09T08:56:08.140Z,3.60
2018-09-09T08:58:36.223Z,3.40
2018-09-09T09:01:04.345Z,3.60
2018-09-09T09:03:32.473Z,3.43
2018-09-09T09:06:00.656Z,2.87
2018-09-09T09:08:28.768Z,3.40
2018-09-09T09:10:56.891Z,3.03
2018-09-09T09:13:25.026Z,3.60
2018-09-09T09:15:53.177Z,3.53
2018-09-09T09:18:21.292Z,2.97
2018-09-09T09:20:49.452Z,3.07
2018-09-09T09:23:18.235Z,2.90
2018-09-09T09:25:52.523Z,3.27
2018-09-09T09:28:21.656Z,3.10
2018-09-09T09:30:50.535Z,2.83
2018-09-09T09:33:18.651Z,2.80
2018-09-09T09:35:52.122Z,2.77
2018-09-09T09:38:22.069Z,3.10
2018-09-09T09:40:50.950Z,2.97
2018-09-09T09:43:19.077Z,2.40
2018-09-09T09:45:47.161Z,2.37
2018-09-09T09:48:15.436Z,2.33
2018-09-09T09:50:49.057Z,2.37
2018-09-09T09:53:17.440Z,2.60
2018-09-09T09:55:45.506Z,2.60
2018-09-09T09:58:13.605Z,2.80
2018-09-09T10:00:48.153Z,2.67
2018-09-09T10:03:16.246Z,2.30
2018-09-09T10:05:44.344Z,2.50
2018-09-09T10:08:12.512Z,2.77
2018-09-09T10:10:41.380Z,3.10
2018-09-09T10:13:10.472Z,2.30
2018-09-09T10:15:38.656Z,2.60
2018-09-09T10:18:06.818Z,2.37
2018-09-09T10:20:34.983Z,2.37
2018-09-09T10:23:04.815Z,2.40
2018-09-09T10:25:32.992Z,2.30
2018-09-09T10:28:01.297Z,2.10
2018-09-09T10:30:30.881Z,2.33
2018-09-09T10:32:59.536Z,2.30
2018-09-09T10:35:27.620Z,2.30
2018-09-09T10:37:55.797Z,2.50
2018-09-09T10:40:24.139Z,2.60
2018-09-09T10:42:52.282Z,2.30
2018-09-09T10:45:20.415Z,2.40
2018-09-09T10:47:48.460Z,2.53
2018-09-09T10:50:16.700Z,2.20
2018-09-09T10:52:44.770Z,2.10
2018-09-09T10:55:12.918Z,2.50
2018-09-09T10:57:41.042Z,2.40
2018-09-09T11:00:09.261Z,2.07
2018-09-09T11:02:37.604Z,2.60
2018-09-09T11:05:05.689Z,2.33
2018-09-09T11:07:34.714Z,2.97
2018-09-09T11:10:03.522Z,2.80
2018-09-09T11:12:32.354Z,3.13
2018-09-09T11:15:02.496Z,2.17
2018-09-09T11:17:31.204Z,2.60
2018-09-09T11:19:59.593Z,2.50
2018-09-09T11:22:28.390Z,2.40
2018-09-09T11:24:56.462Z,2.67
2018-09-09T11:27:25.542Z,2.20
2018-09-09T11:29:53.812Z,2.37
2018-09-09T11:32:21.946Z,2.57
2018-09-09T11:34:50.011Z,2.23
2018-09-09T11:37:18.373Z,2.33
2018-09-09T11:39:50.705Z,2.37
2018-09-09T11:42:19.086Z,1.80
2018-09-09T11:44:47.179Z,2.23
2018-09-09T11:47:15.376Z,2.10
2018-09-09T11:49:44.432Z,2.43
2018-09-09T11:52:15.308Z,2.30
2018-09-09T11:54:43.469Z,2.10
2018-09-09T11:57:11.642Z,1.90
2018-09-09T11:59:39.858Z,2.00
2018-09-09T12:02:08.218Z,2.23
2018-09-09T12:04:36.296Z,1.90
2018-09-09T12:07:04.382Z,1.90
2018-09-09T12:09:32.591Z,2.30
2018-09-09T12:12:00.673Z,2.30
2018-09-09T12:14:28.726Z,1.93
2018-09-09T12:16:57.920Z,1.90
2018-09-09T12:19:26.008Z,2.27
2018-09-09T12:21:54.076Z,2.07
2018-09-09T12:24:22.745Z,2.50
2018-09-09T12:26:50.801Z,2.27
2018-09-09T12:29:19.005Z,2.37
2018-09-09T12:31:47.107Z,2.33
2018-09-09T12:34:15.301Z,2.30
2018-09-09T12:36:44.369Z,2.30
2018-09-09T12:39:12.764Z,2.17
2018-09-09T12:41:41.114Z,1.70
2018-09-09T12:44:15.164Z,2.10
2018-09-09T12:46:48.971Z,2.13
2018-09-09T12:49:17.409Z,1.90
2018-09-09T12:51:46.694Z,2.00
2018-09-09T12:54:15.052Z,1.90
2018-09-09T12:56:43.583Z,1.90
2018-09-09T12:59:12.609Z,1.90
2018-09-09T13:01:40.932Z,1.70
2018-09-09T13:04:09.283Z,2.10
2018-09-09T13:06:37.757Z,1.90
2018-09-09T13:09:07.326Z,1.93
2018-09-09T13:11:35.670Z,2.27
2018-09-09T13:14:04.052Z,2.40
2018-09-09T13:16:32.467Z,2.43
2018-09-09T13:19:00.912Z,2.00
2018-09-09T13:21:29.291Z,2.60
2018-09-09T13:23:57.713Z,2.20
2018-09-09T13:26:26.108Z,2.23
2018-09-09T13:28:54.459Z,2.03
2018-09-09T13:31:22.787Z,2.20
2018-09-09T13:33:51.142Z,2.10
2018-09-09T13:36:19.545Z,2.60
2018-09-09T13:38:47.947Z,2.07
2018-09-09T13:41:29.228Z,1.80
2018-09-09T13:43:57.630Z,2.30
2018-09-09T13:46:26.057Z,2.37
2018-09-09T13:48:56.228Z,1.80
2018-09-09T13:51:24.595Z,2.73
2018-09-09T13:53:52.935Z,2.20
2018-09-09T13:56:21.348Z,2.53
2018-09-09T13:58:49.727Z,3.30
2018-09-09T14:01:21.206Z,2.20
2018-09-09T14:03:51.637Z,2.60
2018-09-09T14:06:20.012Z,2.50
2018-09-09T14:08:49.310Z,2.70
2018-09-09T14:11:17.729Z,2.60
2018-09-09T14:13:46.091Z,2.50
2018-09-09T14:16:14.433Z,2.30
2018-09-09T14:18:42.783Z,2.00
2018-09-09T14:21:11.135Z,2.30
2018-09-09T14:23:39.478Z,2.40
2018-09-09T14:26:07.863Z,2.30
2018-09-09T14:28:47.885Z,2.00
2018-09-09T14:31:16.245Z,3.57
2018-09-09T14:33:44.658Z,2.37
2018-09-09T14:36:12.994Z,2.53
2018-09-09T14:38:41.482Z,2.30
2018-09-09T14:41:09.936Z,2.30
2018-09-09T14:43:38.478Z,2.37
2018-09-09T14:46:06.867Z,2.23
2018-09-09T14:48:36.294Z,3.30
2018-09-09T14:51:04.704Z,2.47
2018-09-09T14:59:17.825Z,2.80
2018-09-09T15:01:57.948Z,2.50
2018-09-09T15:04:37.414Z,2.87
2018-09-09T15:07:09.920Z,2.27
2018-09-09T15:09:49.961Z,2.70
2018-09-09T15:13:16.317Z,2.60
2018-09-09T15:19:55.374Z,2.30
2018-09-09T15:22:28.228Z,2.20
2018-09-09T15:24:58.594Z,3.33
2018-09-09T15:27:27.735Z,3.30
2018-09-09T15:30:06.934Z,2.77
2018-09-09T15:32:43.219Z,3.30
2018-09-09T15:35:16.558Z,2.50
2018-09-09T15:37:50.744Z,3.40
2018-09-09T15:40:25.064Z,3.73
2018-09-09T15:43:02.536Z,2.83
2018-09-09T15:45:34.917Z,2.50
2018-09-09T15:48:28.011Z,2.43
2018-09-09T15:50:56.527Z,3.10
2018-09-09T15:53:30.304Z,2.70
2018-09-09T15:58:56.370Z,2.70
2018-09-09T16:01:29.553Z,2.40
2018-09-09T16:04:11.871Z,2.07
2018-09-09T16:13:02.489Z,2.67
2018-09-09T16:15:41.164Z,2.37
2018-09-09T16:18:13.023Z,2.30
2018-09-09T16:20:46.530Z,2.60
2018-09-09T16:26:48.406Z,2.30
2018-09-09T16:29:16.807Z,2.13
2018-09-09T16:31:45.451Z,2.10
2018-09-09T16:34:21.481Z,2.53
2018-09-09T16:36:51.350Z,2.40
2018-09-09T16:42:18.182Z,3.53
2018-09-09T16:44:49.192Z,4.40
2018-09-09T16:47:17.445Z,4.43
2018-09-09T16:49:46.462Z,2.47
2018-09-09T16:52:22.063Z,2.73
2018-09-09T16:54:51.797Z,2.53
2018-09-09T16:57:26.433Z,2.00
2018-09-09T17:00:00.131Z,5.00
2018-09-09T17:02:32.277Z,2.40
2018-09-09T17:05:06.256Z,3.17
2018-09-09T17:07:34.815Z,3.07
2018-09-09T17:10:02.975Z,2.30
2018-09-09T17:12:31.116Z,2.30
2018-09-09T17:14:59.186Z,3.27
2018-09-09T17:17:30.343Z,2.17
2018-09-09T17:19:59.532Z,2.60
2018-09-09T17:22:28.081Z,3.93
2018-09-09T17:24:56.665Z,3.10
2018-09-09T17:27:24.861Z,3.70
2018-09-09T17:29:53.123Z,2.90
2018-09-09T17:32:21.666Z,3.60
2018-09-09T17:34:50.135Z,2.60
2018-09-09T17:37:21.318Z,3.10
2018-09-09T17:39:50.538Z,2.80
2018-09-09T17:42:18.651Z,2.70
2018-09-09T17:44:46.931Z,3.10
2018-09-09T17:47:15.702Z,3.07
2018-09-09T17:49:45.712Z,3.03
2018-09-09T17:52:13.986Z,2.93
2018-09-09T17:54:42.106Z,3.37
2018-09-09T17:57:11.184Z,3.30
2018-09-09T17:59:39.497Z,3.60
2018-09-09T18:02:07.707Z,3.33
2018-09-09T18:04:35.848Z,4.10
2018-09-09T18:07:04.907Z,4.27
2018-09-09T18:09:33.516Z,4.53
2018-09-09T18:12:01.750Z,5.63
2018-09-09T18:14:29.955Z,6.63
2018-09-09T18:16:58.308Z,7.27
2018-09-09T18:19:26.437Z,6.73
2018-09-09T18:21:54.612Z,7.10
2018-09-09T18:24:23.121Z,6.53
2018-09-09T18:26:51.326Z,7.10
2018-09-09T18:29:19.538Z,7.87
2018-09-09T18:31:47.786Z,6.73
2018-09-09T18:34:16.672Z,7.27
2018-09-09T18:36:44.816Z,7.30
2018-09-09T18:39:13.120Z,6.30
2018-09-09T18:41:41.164Z,8.70
2018-09-09T18:44:09.272Z,6.80
2018-09-09T18:46:37.512Z,6.77
2018-09-09T18:49:06.304Z,7.30
2018-09-09T18:51:34.470Z,8.00
2018-09-09T18:54:02.693Z,9.57
2018-09-09T18:56:30.842Z,9.33
2018-09-09T18:58:58.992Z,9.47
2018-09-09T19:01:31.902Z,8.90
2018-09-09T19:04:00.195Z,7.93
2018-09-09T19:06:28.378Z,7.30
2018-09-09T19:09:05.229Z,7.53
2018-09-09T19:11:33.382Z,10.70
2018-09-09T19:14:04.987Z,8.53
2018-09-09T19:16:37.302Z,8.50
2018-09-09T19:19:05.409Z,8.93
2018-09-09T19:21:34.307Z,9.27
2018-09-09T19:24:04.772Z,9.33
2018-09-09T19:26:32.907Z,8.40
2018-09-09T19:29:04.408Z,10.70
2018-09-09T19:31:32.530Z,10.07
2018-09-09T19:34:03.819Z,10.03
2018-09-09T19:36:32.339Z,9.93
2018-09-09T19:39:00.908Z,10.00
2018-09-09T19:41:31.985Z,10.33
2018-09-09T19:44:00.153Z,10.07
2018-09-09T19:46:30.393Z,9.37
2018-09-09T19:49:00.362Z,9.37
2018-09-09T19:51:28.644Z,10.80
2018-09-09T19:53:56.810Z,10.60
2018-09-09T19:56:24.959Z,10.30
2018-09-09T19:58:53.161Z,9.83
2018-09-09T20:01:21.288Z,11.10
2018-09-09T20:03:49.415Z,10.77
2018-09-09T20:06:17.590Z,10.20
2018-09-09T20:08:45.710Z,9.87
2018-09-09T20:11:13.872Z,10.50
2018-09-09T20:13:42.018Z,9.20
2018-09-09T20:16:10.222Z,10.33
2018-09-09T20:18:38.599Z,10.40
2018-09-09T20:21:07.037Z,10.07
2018-09-09T20:23:35.214Z,10.10
2018-09-09T20:26:03.518Z,9.97
2018-09-09T20:28:31.790Z,8.73
2018-09-09T20:30:59.910Z,8.63
2018-09-09T20:33:28.099Z,8.43
2018-09-09T20:35:56.317Z,9.47
2018-09-09T20:38:24.610Z,9.67
2018-09-09T20:40:52.794Z,10.97
2018-09-09T20:43:21.000Z,10.97
2018-09-09T20:45:49.194Z,9.83
2018-09-09T20:48:17.344Z,9.30
2018-09-09T20:50:45.547Z,9.33
2018-09-09T20:53:13.692Z,11.53
2018-09-09T20:55:42.330Z,11.47
2018-09-09T20:58:10.538Z,9.93
2018-09-09T21:00:39.028Z,9.67
2018-09-09T21:03:07.254Z,10.43
2018-09-09T21:05:35.379Z,9.07
2018-09-09T21:08:03.488Z,10.20
2018-09-09T21:10:31.750Z,10.33
2018-09-09T21:12:59.989Z,9.90
2018-09-09T21:15:28.081Z,10.80
2018-09-09T21:17:56.253Z,9.90
2018-09-09T21:20:24.468Z,11.27
2018-09-09T21:22:52.723Z,10.87
2018-09-09T21:25:20.823Z,10.50
2018-09-09T21:27:49.013Z,10.87
2018-09-09T21:30:17.361Z,10.67
2018-09-09T21:32:45.987Z,10.10
2018-09-09T21:35:14.213Z,10.87
2018-09-09T21:37:42.426Z,10.50
2018-09-09T21:40:10.531Z,10.50
2018-09-09T21:42:38.604Z,10.40
2018-09-09T21:45:06.674Z,9.47
2018-09-09T21:47:35.306Z,10.40
2018-09-09T21:50:03.702Z,9.67
2018-09-09T21:52:31.754Z,10.60
2018-09-09T21:54:59.934Z,9.60
2018-09-09T21:57:28.274Z,10.47
2018-09-09T21:59:56.368Z,10.50
2018-09-09T22:02:24.547Z,10.90
2018-09-09T22:04:52.775Z,11.37
2018-09-09T22:07:21.103Z,10.27
2018-09-09T22:09:49.183Z,11.60
2018-09-09T22:12:17.263Z,10.67
2018-09-09T22:14:45.336Z,10.30
2018-09-09T22:17:13.702Z,10.97
2018-09-09T22:19:41.834Z,10.60
2018-09-09T22:22:10.293Z,10.60
2018-09-09T22:24:38.739Z,10.17
2018-09-09T22:27:07.107Z,9.73
2018-09-09T22:29:35.478Z,9.97
2018-09-09T22:32:03.857Z,8.77
2018-09-09T22:34:32.334Z,9.60
2018-09-09T22:37:00.828Z,8.50
2018-09-09T22:39:29.352Z,9.03
2018-09-09T22:41:57.815Z,9.67
2018-09-09T22:44:26.450Z,9.23
2018-09-09T22:46:55.006Z,10.13
2018-09-09T22:49:23.376Z,9.10
2018-09-09T22:51:51.897Z,9.63
2018-09-09T22:54:20.372Z,9.70
2018-09-09T22:56:48.828Z,9.20
2018-09-09T22:59:17.222Z,9.60
2018-09-09T23:01:45.584Z,9.13
2018-09-09T23:04:14.057Z,10.17
2018-09-09T23:06:42.498Z,9.60
2018-09-09T23:09:12.418Z,9.50
2018-09-09T23:11:41.441Z,9.70
2018-09-09T23:14:10.172Z,9.47
2018-09-09T23:16:38.759Z,9.27
2018-09-09T23:19:07.156Z,9.33
2018-09-09T23:21:35.474Z,9.33
2018-09-09T23:24:04.124Z,8.77
2018-09-09T23:26:32.491Z,9.57
2018-09-09T23:29:00.853Z,9.77
2018-09-09T23:31:29.422Z,9.57
2018-09-09T23:33:57.864Z,9.77
2018-09-09T23:36:26.300Z,9.40
2018-09-09T23:38:54.864Z,9.93
2018-09-09T23:41:23.175Z,9.57
2018-09-09T23:43:52.194Z,9.00
2018-09-09T23:46:20.542Z,9.17
2018-09-09T23:48:48.907Z,8.90
2018-09-09T23:51:17.307Z,9.50
2018-09-09T23:53:46.285Z,9.20
2018-09-09T23:56:15.136Z,8.97
2018-09-09T23:58:43.525Z,9.70
